sensor_id;sensor_type;location;lat;lon;timestamp;temperature;humidity
15535;DHT22;7869;49.264;8.596;2022-12-18T00:01:48;-7.80;99.90
15535;DHT22;7869;49.264;8.596;2022-12-18T00:04:20;-7.90;99.90
15535;DHT22;7869;49.264;8.596;2022-12-18T00:06:46;-7.90;99.90
15535;DHT22;7869;49.264;8.596;2022-12-18T00:09:11;-7.80;99.90
15535;DHT22;7869;49.264;8.596;2022-12-18T00:11:37;-7.80;99.90
15535;DHT22;7869;49.264;8.596;2022-12-18T00:14:03;-7.80;99.90
15535;DHT22;7869;49.264;8.596;2022-12-18T00:16:29;-7.80;99.90
15535;DHT22;7869;49.264;8.596;2022-12-18T00:18:56;-7.80;99.90
15535;DHT22;7869;49.264;8.596;2022-12-18T00:21:22;-7.90;99.90
15535;DHT22;7869;49.264;8.596;2022-12-18T00:23:48;-7.90;99.90
15535;DHT22;7869;49.264;8.596;2022-12-18T00:26:16;-7.90;99.90
15535;DHT22;7869;49.264;8.596;2022-12-18T00:28:43;-7.80;99.90
15535;DHT22;7869;49.264;8.596;2022-12-18T00:31:11;-7.80;99.90
15535;DHT22;7869;49.264;8.596;2022-12-18T00:33:38;-7.80;99.90
15535;DHT22;7869;49.264;8.596;2022-12-18T00:36:05;-7.70;99.90
15535;DHT22;7869;49.264;8.596;2022-12-18T00:38:31;-7.70;99.90
15535;DHT22;7869;49.264;8.596;2022-12-18T00:40:57;-7.70;99.90
15535;DHT22;7869;49.264;8.596;2022-12-18T00:43:22;-7.70;99.90
15535;DHT22;7869;49.264;8.596;2022-12-18T00:45:48;-7.60;99.90
15535;DHT22;7869;49.264;8.596;2022-12-18T00:48:13;-7.70;99.90
15535;DHT22;7869;49.264;8.596;2022-12-18T00:50:39;-7.60;99.90
15535;DHT22;7869;49.264;8.596;2022-12-18T00:53:05;-7.70;99.90
15535;DHT22;7869;49.264;8.596;2022-12-18T00:55:30;-7.70;99.90
15535;DHT22;7869;49.264;8.596;2022-12-18T00:57:56;-7.70;99.90
15535;DHT22;7869;49.264;8.596;2022-12-18T01:00:21;-7.80;99.90
15535;DHT22;7869;49.264;8.596;2022-12-18T01:02:47;-7.70;99.90
15535;DHT22;7869;49.264;8.596;2022-12-18T01:05:13;-7.80;99.90
15535;DHT22;7869;49.264;8.596;2022-12-18T01:07:39;-7.80;99.90
15535;DHT22;7869;49.264;8.596;2022-12-18T01:10:07;-7.80;99.90
15535;DHT22;7869;49.264;8.596;2022-12-18T01:12:33;-7.70;99.90
15535;DHT22;7869;49.264;8.596;2022-12-18T01:14:59;-7.70;99.90
15535;DHT22;7869;49.264;8.596;2022-12-18T01:17:24;-7.70;99.90
15535;DHT22;7869;49.264;8.596;2022-12-18T01:19:50;-7.70;99.90
15535;DHT22;7869;49.264;8.596;2022-12-18T01:22:15;-7.70;99.90
15535;DHT22;7869;49.264;8.596;2022-12-18T01:24:41;-7.80;99.90
15535;DHT22;7869;49.264;8.596;2022-12-18T01:27:07;-7.80;99.90
15535;DHT22;7869;49.264;8.596;2022-12-18T01:29:33;-7.80;99.90
15535;DHT22;7869;49.264;8.596;2022-12-18T01:31:58;-7.80;99.90
15535;DHT22;7869;49.264;8.596;2022-12-18T01:34:24;-7.80;99.90
15535;DHT22;7869;49.264;8.596;2022-12-18T01:36:50;-7.80;99.90
15535;DHT22;7869;49.264;8.596;2022-12-18T01:39:18;-7.80;99.90
15535;DHT22;7869;49.264;8.596;2022-12-18T01:41:44;-7.80;99.90
15535;DHT22;7869;49.264;8.596;2022-12-18T01:44:58;-7.80;99.90
15535;DHT22;7869;49.264;8.596;2022-12-18T01:47:29;-7.80;99.90
15535;DHT22;7869;49.264;8.596;2022-12-18T01:49:57;-7.80;99.90
15535;DHT22;7869;49.264;8.596;2022-12-18T01:52:26;-7.80;99.90
15535;DHT22;7869;49.264;8.596;2022-12-18T01:54:53;-7.90;99.90
15535;DHT22;7869;49.264;8.596;2022-12-18T01:57:19;-7.90;99.90
15535;DHT22;7869;49.264;8.596;2022-12-18T01:59:47;-7.90;99.90
15535;DHT22;7869;49.264;8.596;2022-12-18T02:02:16;-7.90;99.90
15535;DHT22;7869;49.264;8.596;2022-12-18T02:04:42;-7.90;99.90
15535;DHT22;7869;49.264;8.596;2022-12-18T02:10:15;-8.00;99.90
15535;DHT22;7869;49.264;8.596;2022-12-18T02:12:49;-8.00;99.90
15535;DHT22;7869;49.264;8.596;2022-12-18T02:15:36;-8.00;99.90
15535;DHT22;7869;49.264;8.596;2022-12-18T02:18:18;-8.10;99.90
15535;DHT22;7869;49.264;8.596;2022-12-18T02:20:55;-8.10;99.90
15535;DHT22;7869;49.264;8.596;2022-12-18T02:23:50;-8.10;99.90
15535;DHT22;7869;49.264;8.596;2022-12-18T02:26:32;-8.10;99.90
15535;DHT22;7869;49.264;8.596;2022-12-18T02:29:04;-8.10;99.90
15535;DHT22;7869;49.264;8.596;2022-12-18T02:31:36;-8.00;99.90
15535;DHT22;7869;49.264;8.596;2022-12-18T02:34:05;-8.10;99.90
15535;DHT22;7869;49.264;8.596;2022-12-18T02:36:33;-8.10;99.90
15535;DHT22;7869;49.264;8.596;2022-12-18T02:39:00;-8.10;99.90
15535;DHT22;7869;49.264;8.596;2022-12-18T02:41:27;-8.20;99.90
15535;DHT22;7869;49.264;8.596;2022-12-18T02:43:56;-8.20;99.90
15535;DHT22;7869;49.264;8.596;2022-12-18T02:46:35;-8.20;99.90
15535;DHT22;7869;49.264;8.596;2022-12-18T02:49:17;-8.20;99.90
15535;DHT22;7869;49.264;8.596;2022-12-18T02:57:18;-8.20;99.90
15535;DHT22;7869;49.264;8.596;2022-12-18T03:00:08;-8.10;99.90
15535;DHT22;7869;49.264;8.596;2022-12-18T03:05:32;-8.20;99.90
15535;DHT22;7869;49.264;8.596;2022-12-18T03:08:08;-8.30;99.90
15535;DHT22;7869;49.264;8.596;2022-12-18T03:11:03;-8.30;99.90
15535;DHT22;7869;49.264;8.596;2022-12-18T03:13:37;-8.30;99.90
15535;DHT22;7869;49.264;8.596;2022-12-18T03:16:07;-8.20;99.90
15535;DHT22;7869;49.264;8.596;2022-12-18T03:18:50;-8.20;99.90
15535;DHT22;7869;49.264;8.596;2022-12-18T03:21:21;-8.20;99.90
15535;DHT22;7869;49.264;8.596;2022-12-18T03:23:50;-8.30;99.90
15535;DHT22;7869;49.264;8.596;2022-12-18T03:26:19;-8.30;99.90
15535;DHT22;7869;49.264;8.596;2022-12-18T03:28:50;-8.30;99.90
15535;DHT22;7869;49.264;8.596;2022-12-18T03:31:17;-8.30;99.90
15535;DHT22;7869;49.264;8.596;2022-12-18T03:33:58;-8.30;99.90
15535;DHT22;7869;49.264;8.596;2022-12-18T03:36:25;-8.40;99.90
15535;DHT22;7869;49.264;8.596;2022-12-18T03:38:51;-8.50;99.90
15535;DHT22;7869;49.264;8.596;2022-12-18T03:41:18;-8.50;99.90
15535;DHT22;7869;49.264;8.596;2022-12-18T03:44:10;-8.60;99.90
15535;DHT22;7869;49.264;8.596;2022-12-18T03:49:11;-8.70;99.90
15535;DHT22;7869;49.264;8.596;2022-12-18T03:51:42;-8.70;99.90
15535;DHT22;7869;49.264;8.596;2022-12-18T03:54:10;-8.80;99.90
15535;DHT22;7869;49.264;8.596;2022-12-18T03:56:42;-8.80;99.90
15535;DHT22;7869;49.264;8.596;2022-12-18T03:59:10;-8.80;99.90
15535;DHT22;7869;49.264;8.596;2022-12-18T04:01:46;-8.80;99.90
15535;DHT22;7869;49.264;8.596;2022-12-18T04:04:14;-8.80;99.90
15535;DHT22;7869;49.264;8.596;2022-12-18T04:06:41;-8.80;99.90
15535;DHT22;7869;49.264;8.596;2022-12-18T04:09:08;-8.80;99.90
15535;DHT22;7869;49.264;8.596;2022-12-18T04:11:34;-8.80;99.90
15535;DHT22;7869;49.264;8.596;2022-12-18T04:13:59;-8.90;99.90
15535;DHT22;7869;49.264;8.596;2022-12-18T04:16:26;-8.90;99.90
15535;DHT22;7869;49.264;8.596;2022-12-18T04:18:53;-9.00;99.90
15535;DHT22;7869;49.264;8.596;2022-12-18T04:21:19;-9.00;99.90
15535;DHT22;7869;49.264;8.596;2022-12-18T04:23:45;-9.00;99.90
15535;DHT22;7869;49.264;8.596;2022-12-18T04:26:10;-9.10;99.90
15535;DHT22;7869;49.264;8.596;2022-12-18T04:28:36;-9.10;99.90
15535;DHT22;7869;49.264;8.596;2022-12-18T04:31:01;-9.10;99.90
15535;DHT22;7869;49.264;8.596;2022-12-18T04:33:27;-9.20;99.90
15535;DHT22;7869;49.264;8.596;2022-12-18T04:35:53;-9.20;99.90
15535;DHT22;7869;49.264;8.596;2022-12-18T04:38:18;-9.20;99.90
15535;DHT22;7869;49.264;8.596;2022-12-18T04:40:44;-9.30;99.90
15535;DHT22;7869;49.264;8.596;2022-12-18T04:43:10;-9.30;99.90
15535;DHT22;7869;49.264;8.596;2022-12-18T04:45:35;-9.30;99.90
15535;DHT22;7869;49.264;8.596;2022-12-18T04:48:02;-9.40;99.90
15535;DHT22;7869;49.264;8.596;2022-12-18T04:50:28;-9.40;99.90
15535;DHT22;7869;49.264;8.596;2022-12-18T04:52:54;-9.40;99.90
15535;DHT22;7869;49.264;8.596;2022-12-18T04:55:19;-9.30;99.90
15535;DHT22;7869;49.264;8.596;2022-12-18T04:57:45;-9.30;99.90
15535;DHT22;7869;49.264;8.596;2022-12-18T05:00:11;-9.40;99.90
15535;DHT22;7869;49.264;8.596;2022-12-18T05:02:37;-9.40;99.90
15535;DHT22;7869;49.264;8.596;2022-12-18T05:05:02;-9.40;99.90
15535;DHT22;7869;49.264;8.596;2022-12-18T05:07:28;-9.40;99.90
15535;DHT22;7869;49.264;8.596;2022-12-18T05:09:54;-9.40;99.90
15535;DHT22;7869;49.264;8.596;2022-12-18T05:12:19;-9.40;99.90
15535;DHT22;7869;49.264;8.596;2022-12-18T05:14:45;-9.40;99.90
15535;DHT22;7869;49.264;8.596;2022-12-18T05:17:10;-9.40;99.90
15535;DHT22;7869;49.264;8.596;2022-12-18T05:19:36;-9.30;99.90
15535;DHT22;7869;49.264;8.596;2022-12-18T05:22:01;-9.30;99.90
15535;DHT22;7869;49.264;8.596;2022-12-18T05:24:27;-9.30;99.90
15535;DHT22;7869;49.264;8.596;2022-12-18T05:26:52;-9.30;99.90
15535;DHT22;7869;49.264;8.596;2022-12-18T05:29:18;-9.20;99.90
15535;DHT22;7869;49.264;8.596;2022-12-18T05:31:44;-9.20;99.90
15535;DHT22;7869;49.264;8.596;2022-12-18T05:34:09;-9.20;99.90
15535;DHT22;7869;49.264;8.596;2022-12-18T05:36:35;-9.10;99.90
15535;DHT22;7869;49.264;8.596;2022-12-18T05:39:00;-9.00;99.90
15535;DHT22;7869;49.264;8.596;2022-12-18T05:41:26;-8.80;99.90
15535;DHT22;7869;49.264;8.596;2022-12-18T05:43:52;-8.70;99.90
15535;DHT22;7869;49.264;8.596;2022-12-18T05:46:18;-8.50;99.90
15535;DHT22;7869;49.264;8.596;2022-12-18T05:48:44;-8.30;99.90
15535;DHT22;7869;49.264;8.596;2022-12-18T05:51:12;-8.10;99.90
15535;DHT22;7869;49.264;8.596;2022-12-18T05:53:38;-8.00;99.90
15535;DHT22;7869;49.264;8.596;2022-12-18T05:56:06;-7.90;99.90
15535;DHT22;7869;49.264;8.596;2022-12-18T05:58:32;-7.80;99.90
15535;DHT22;7869;49.264;8.596;2022-12-18T06:01:09;-7.80;99.90
15535;DHT22;7869;49.264;8.596;2022-12-18T06:03:36;-7.70;99.90
15535;DHT22;7869;49.264;8.596;2022-12-18T06:06:01;-7.60;99.90
15535;DHT22;7869;49.264;8.596;2022-12-18T06:08:27;-7.60;99.90
15535;DHT22;7869;49.264;8.596;2022-12-18T06:10:53;-7.60;99.90
15535;DHT22;7869;49.264;8.596;2022-12-18T06:13:19;-7.50;99.90
15535;DHT22;7869;49.264;8.596;2022-12-18T06:15:45;-7.50;99.90
15535;DHT22;7869;49.264;8.596;2022-12-18T06:18:10;-7.50;99.90
15535;DHT22;7869;49.264;8.596;2022-12-18T06:20:36;-7.60;99.90
15535;DHT22;7869;49.264;8.596;2022-12-18T06:23:05;-7.60;99.90
15535;DHT22;7869;49.264;8.596;2022-12-18T06:25:30;-7.50;99.90
15535;DHT22;7869;49.264;8.596;2022-12-18T06:27:56;-7.50;99.90
15535;DHT22;7869;49.264;8.596;2022-12-18T06:30:21;-7.40;99.90
15535;DHT22;7869;49.264;8.596;2022-12-18T06:32:48;-7.40;99.90
15535;DHT22;7869;49.264;8.596;2022-12-18T06:35:14;-7.40;99.90
15535;DHT22;7869;49.264;8.596;2022-12-18T06:37:39;-7.40;99.90
15535;DHT22;7869;49.264;8.596;2022-12-18T06:40:05;-7.40;99.90
15535;DHT22;7869;49.264;8.596;2022-12-18T06:42:31;-7.40;99.90
15535;DHT22;7869;49.264;8.596;2022-12-18T06:44:57;-7.40;99.90
15535;DHT22;7869;49.264;8.596;2022-12-18T06:47:23;-7.40;99.90
15535;DHT22;7869;49.264;8.596;2022-12-18T06:49:48;-7.40;99.90
15535;DHT22;7869;49.264;8.596;2022-12-18T06:52:14;-7.40;99.90
15535;DHT22;7869;49.264;8.596;2022-12-18T06:54:39;-7.40;99.90
15535;DHT22;7869;49.264;8.596;2022-12-18T06:57:05;-7.40;99.90
15535;DHT22;7869;49.264;8.596;2022-12-18T06:59:31;-7.50;99.90
15535;DHT22;7869;49.264;8.596;2022-12-18T07:01:56;-7.50;99.90
15535;DHT22;7869;49.264;8.596;2022-12-18T07:04:22;-7.50;99.90
15535;DHT22;7869;49.264;8.596;2022-12-18T07:06:47;-7.40;99.90
15535;DHT22;7869;49.264;8.596;2022-12-18T07:09:13;-7.50;99.90
15535;DHT22;7869;49.264;8.596;2022-12-18T07:11:38;-7.50;99.90
15535;DHT22;7869;49.264;8.596;2022-12-18T07:14:04;-7.50;99.90
15535;DHT22;7869;49.264;8.596;2022-12-18T07:16:29;-7.50;99.90
15535;DHT22;7869;49.264;8.596;2022-12-18T07:18:55;-7.50;99.90
15535;DHT22;7869;49.264;8.596;2022-12-18T07:21:22;-7.50;99.90
15535;DHT22;7869;49.264;8.596;2022-12-18T07:23:48;-7.40;99.90
15535;DHT22;7869;49.264;8.596;2022-12-18T07:26:15;-7.40;99.90
15535;DHT22;7869;49.264;8.596;2022-12-18T07:28:42;-7.50;99.90
15535;DHT22;7869;49.264;8.596;2022-12-18T07:31:11;-7.50;99.90
15535;DHT22;7869;49.264;8.596;2022-12-18T07:33:36;-7.50;99.90
15535;DHT22;7869;49.264;8.596;2022-12-18T07:36:06;-7.60;99.90
15535;DHT22;7869;49.264;8.596;2022-12-18T07:38:33;-7.60;99.90
15535;DHT22;7869;49.264;8.596;2022-12-18T07:41:04;-7.60;99.90
15535;DHT22;7869;49.264;8.596;2022-12-18T07:43:30;-7.50;99.90
15535;DHT22;7869;49.264;8.596;2022-12-18T07:45:55;-7.50;99.90
15535;DHT22;7869;49.264;8.596;2022-12-18T07:48:21;-7.50;99.90
15535;DHT22;7869;49.264;8.596;2022-12-18T07:50:46;-7.50;99.90
15535;DHT22;7869;49.264;8.596;2022-12-18T07:53:12;-7.40;99.90
15535;DHT22;7869;49.264;8.596;2022-12-18T07:55:38;-7.40;99.90
15535;DHT22;7869;49.264;8.596;2022-12-18T07:58:04;-7.40;99.90
15535;DHT22;7869;49.264;8.596;2022-12-18T08:00:30;-7.30;99.90
15535;DHT22;7869;49.264;8.596;2022-12-18T08:02:56;-7.30;99.90
15535;DHT22;7869;49.264;8.596;2022-12-18T08:05:21;-7.30;99.90
15535;DHT22;7869;49.264;8.596;2022-12-18T08:07:47;-7.20;99.90
15535;DHT22;7869;49.264;8.596;2022-12-18T08:10:13;-7.20;99.90
15535;DHT22;7869;49.264;8.596;2022-12-18T08:12:39;-7.20;99.90
15535;DHT22;7869;49.264;8.596;2022-12-18T08:15:05;-7.10;99.90
15535;DHT22;7869;49.264;8.596;2022-12-18T08:17:31;-7.10;99.90
15535;DHT22;7869;49.264;8.596;2022-12-18T08:19:56;-7.00;99.90
15535;DHT22;7869;49.264;8.596;2022-12-18T08:22:22;-7.00;99.90
15535;DHT22;7869;49.264;8.596;2022-12-18T08:24:48;-6.90;99.90
15535;DHT22;7869;49.264;8.596;2022-12-18T08:27:13;-6.70;99.90
15535;DHT22;7869;49.264;8.596;2022-12-18T08:29:39;-6.60;99.90
15535;DHT22;7869;49.264;8.596;2022-12-18T08:32:04;-6.60;99.90
15535;DHT22;7869;49.264;8.596;2022-12-18T08:34:30;-6.60;99.90
15535;DHT22;7869;49.264;8.596;2022-12-18T08:36:55;-6.50;99.90
15535;DHT22;7869;49.264;8.596;2022-12-18T08:39:21;-6.50;99.90
15535;DHT22;7869;49.264;8.596;2022-12-18T08:41:46;-6.40;99.90
15535;DHT22;7869;49.264;8.596;2022-12-18T08:44:32;-6.30;99.90
15535;DHT22;7869;49.264;8.596;2022-12-18T08:47:05;-6.30;99.90
15535;DHT22;7869;49.264;8.596;2022-12-18T08:49:31;-6.20;99.90
15535;DHT22;7869;49.264;8.596;2022-12-18T08:51:56;-6.20;99.90
15535;DHT22;7869;49.264;8.596;2022-12-18T08:54:23;-6.10;99.90
15535;DHT22;7869;49.264;8.596;2022-12-18T08:56:49;-6.10;99.90
15535;DHT22;7869;49.264;8.596;2022-12-18T08:59:16;-6.00;99.90
15535;DHT22;7869;49.264;8.596;2022-12-18T09:01:42;-5.90;99.90
15535;DHT22;7869;49.264;8.596;2022-12-18T09:04:11;-5.90;99.90
15535;DHT22;7869;49.264;8.596;2022-12-18T09:06:37;-5.80;99.90
15535;DHT22;7869;49.264;8.596;2022-12-18T09:09:03;-5.70;99.90
15535;DHT22;7869;49.264;8.596;2022-12-18T09:11:30;-5.70;99.90
15535;DHT22;7869;49.264;8.596;2022-12-18T09:13:56;-5.60;99.90
15535;DHT22;7869;49.264;8.596;2022-12-18T09:16:23;-5.50;99.90
15535;DHT22;7869;49.264;8.596;2022-12-18T09:18:49;-5.50;99.90
15535;DHT22;7869;49.264;8.596;2022-12-18T09:21:17;-5.40;99.90
15535;DHT22;7869;49.264;8.596;2022-12-18T09:23:44;-5.40;99.90
15535;DHT22;7869;49.264;8.596;2022-12-18T09:26:09;-5.30;99.90
15535;DHT22;7869;49.264;8.596;2022-12-18T09:28:35;-5.20;99.90
15535;DHT22;7869;49.264;8.596;2022-12-18T09:31:05;-5.20;99.90
15535;DHT22;7869;49.264;8.596;2022-12-18T09:33:31;-5.30;99.90
15535;DHT22;7869;49.264;8.596;2022-12-18T09:35:57;-5.20;99.90
15535;DHT22;7869;49.264;8.596;2022-12-18T09:38:23;-5.20;99.90
15535;DHT22;7869;49.264;8.596;2022-12-18T09:40:54;-5.10;99.90
15535;DHT22;7869;49.264;8.596;2022-12-18T09:43:28;-4.90;99.90
15535;DHT22;7869;49.264;8.596;2022-12-18T09:45:59;-4.80;99.90
15535;DHT22;7869;49.264;8.596;2022-12-18T09:48:32;-4.60;99.90
15535;DHT22;7869;49.264;8.596;2022-12-18T09:51:21;-4.50;99.90
15535;DHT22;7869;49.264;8.596;2022-12-18T09:54:15;-4.40;99.90
15535;DHT22;7869;49.264;8.596;2022-12-18T09:56:41;-4.40;99.90
15535;DHT22;7869;49.264;8.596;2022-12-18T09:59:32;-4.30;99.90
15535;DHT22;7869;49.264;8.596;2022-12-18T10:01:59;-4.20;99.90
15535;DHT22;7869;49.264;8.596;2022-12-18T10:04:25;-4.10;99.90
15535;DHT22;7869;49.264;8.596;2022-12-18T10:07:03;-4.00;99.90
15535;DHT22;7869;49.264;8.596;2022-12-18T10:09:37;-3.90;99.90
15535;DHT22;7869;49.264;8.596;2022-12-18T10:12:32;-3.90;99.90
15535;DHT22;7869;49.264;8.596;2022-12-18T10:15:29;-3.80;99.90
15535;DHT22;7869;49.264;8.596;2022-12-18T10:20:51;-3.60;99.90
15535;DHT22;7869;49.264;8.596;2022-12-18T10:26:09;-3.40;99.90
15535;DHT22;7869;49.264;8.596;2022-12-18T10:28:39;-3.40;99.90
15535;DHT22;7869;49.264;8.596;2022-12-18T10:31:16;-3.30;99.90
15535;DHT22;7869;49.264;8.596;2022-12-18T10:33:42;-3.20;99.90
15535;DHT22;7869;49.264;8.596;2022-12-18T10:36:08;-3.10;99.90
15535;DHT22;7869;49.264;8.596;2022-12-18T10:38:34;-3.00;99.90
15535;DHT22;7869;49.264;8.596;2022-12-18T10:41:05;-2.90;99.90
15535;DHT22;7869;49.264;8.596;2022-12-18T10:43:36;-2.80;99.90
15535;DHT22;7869;49.264;8.596;2022-12-18T10:51:31;-2.50;99.90
15535;DHT22;7869;49.264;8.596;2022-12-18T10:54:04;-2.50;99.90
15535;DHT22;7869;49.264;8.596;2022-12-18T10:56:33;-2.40;99.90
15535;DHT22;7869;49.264;8.596;2022-12-18T10:59:11;-2.30;99.90
15535;DHT22;7869;49.264;8.596;2022-12-18T11:01:55;-2.30;99.90
15535;DHT22;7869;49.264;8.596;2022-12-18T11:04:29;-2.20;99.90
15535;DHT22;7869;49.264;8.596;2022-12-18T11:07:00;-2.20;99.90
15535;DHT22;7869;49.264;8.596;2022-12-18T11:09:28;-2.20;99.90
15535;DHT22;7869;49.264;8.596;2022-12-18T11:11:57;-2.10;99.90
15535;DHT22;7869;49.264;8.596;2022-12-18T11:14:27;-2.10;99.90
15535;DHT22;7869;49.264;8.596;2022-12-18T11:16:54;-2.00;99.90
15535;DHT22;7869;49.264;8.596;2022-12-18T11:19:37;-2.00;99.90
15535;DHT22;7869;49.264;8.596;2022-12-18T11:22:28;-1.90;99.90
15535;DHT22;7869;49.264;8.596;2022-12-18T11:27:23;-1.80;99.90
15535;DHT22;7869;49.264;8.596;2022-12-18T11:29:50;-1.70;99.90
15535;DHT22;7869;49.264;8.596;2022-12-18T11:32:30;-1.60;99.90
15535;DHT22;7869;49.264;8.596;2022-12-18T11:37:36;-1.50;99.90
15535;DHT22;7869;49.264;8.596;2022-12-18T11:40:27;-1.50;99.90
15535;DHT22;7869;49.264;8.596;2022-12-18T11:43:14;-1.40;99.90
15535;DHT22;7869;49.264;8.596;2022-12-18T11:45:54;-1.40;99.90
15535;DHT22;7869;49.264;8.596;2022-12-18T11:48:28;-1.40;99.90
15535;DHT22;7869;49.264;8.596;2022-12-18T11:50:56;-1.40;99.90
15535;DHT22;7869;49.264;8.596;2022-12-18T11:53:25;-1.30;99.90
15535;DHT22;7869;49.264;8.596;2022-12-18T11:56:01;-1.30;99.90
15535;DHT22;7869;49.264;8.596;2022-12-18T11:58:41;-1.20;99.90
15535;DHT22;7869;49.264;8.596;2022-12-18T12:04:10;-1.20;99.90
15535;DHT22;7869;49.264;8.596;2022-12-18T12:07:18;-1.30;99.90
15535;DHT22;7869;49.264;8.596;2022-12-18T12:15:30;-1.20;99.90
15535;DHT22;7869;49.264;8.596;2022-12-18T12:18:25;-1.10;99.90
15535;DHT22;7869;49.264;8.596;2022-12-18T12:26:16;-0.90;99.90
15535;DHT22;7869;49.264;8.596;2022-12-18T12:32:26;-0.80;99.90
15535;DHT22;7869;49.264;8.596;2022-12-18T12:38:05;-0.70;99.90
15535;DHT22;7869;49.264;8.596;2022-12-18T12:40:35;-0.80;99.90
15535;DHT22;7869;49.264;8.596;2022-12-18T12:43:14;-0.80;99.90
15535;DHT22;7869;49.264;8.596;2022-12-18T12:45:51;-0.90;99.90
15535;DHT22;7869;49.264;8.596;2022-12-18T12:51:30;-0.80;99.90
15535;DHT22;7869;49.264;8.596;2022-12-18T12:53:58;-0.80;99.90
15535;DHT22;7869;49.264;8.596;2022-12-18T12:56:32;-0.80;99.90
15535;DHT22;7869;49.264;8.596;2022-12-18T13:04:51;-0.70;99.90
15535;DHT22;7869;49.264;8.596;2022-12-18T13:07:34;-0.70;99.90
15535;DHT22;7869;49.264;8.596;2022-12-18T13:10:33;-0.70;99.90
15535;DHT22;7869;49.264;8.596;2022-12-18T13:18:20;-0.60;99.90
15535;DHT22;7869;49.264;8.596;2022-12-18T13:21:15;-0.60;99.90
15535;DHT22;7869;49.264;8.596;2022-12-18T13:23:43;-0.60;99.90
15535;DHT22;7869;49.264;8.596;2022-12-18T13:31:12;-0.70;99.90
15535;DHT22;7869;49.264;8.596;2022-12-18T13:33:45;-0.70;99.90
15535;DHT22;7869;49.264;8.596;2022-12-18T13:36:37;-0.70;99.90
15535;DHT22;7869;49.264;8.596;2022-12-18T13:41:45;-0.80;99.90
15535;DHT22;7869;49.264;8.596;2022-12-18T13:46:55;-0.80;99.90
15535;DHT22;7869;49.264;8.596;2022-12-18T13:49:37;-0.80;99.90
15535;DHT22;7869;49.264;8.596;2022-12-18T13:52:17;-0.90;99.90
15535;DHT22;7869;49.264;8.596;2022-12-18T13:54:49;-1.00;99.90
15535;DHT22;7869;49.264;8.596;2022-12-18T13:59:51;-1.10;99.90
15535;DHT22;7869;49.264;8.596;2022-12-18T14:02:21;-1.20;99.90
15535;DHT22;7869;49.264;8.596;2022-12-18T14:04:48;-1.20;99.90
15535;DHT22;7869;49.264;8.596;2022-12-18T14:07:18;-1.20;99.90
15535;DHT22;7869;49.264;8.596;2022-12-18T14:09:47;-1.20;99.90
15535;DHT22;7869;49.264;8.596;2022-12-18T14:12:20;-1.30;99.90
15535;DHT22;7869;49.264;8.596;2022-12-18T14:15:16;-1.30;99.90
15535;DHT22;7869;49.264;8.596;2022-12-18T14:17:46;-1.30;99.90
15535;DHT22;7869;49.264;8.596;2022-12-18T14:20:15;-1.40;99.90
15535;DHT22;7869;49.264;8.596;2022-12-18T14:22:47;-1.40;99.90
15535;DHT22;7869;49.264;8.596;2022-12-18T14:27:43;-1.40;99.90
15535;DHT22;7869;49.264;8.596;2022-12-18T14:33:21;-1.40;99.90
15535;DHT22;7869;49.264;8.596;2022-12-18T14:36:03;-1.50;99.90
15535;DHT22;7869;49.264;8.596;2022-12-18T14:38:33;-1.60;99.90
15535;DHT22;7869;49.264;8.596;2022-12-18T14:41:00;-1.60;99.90
15535;DHT22;7869;49.264;8.596;2022-12-18T14:43:28;-1.70;99.90
15535;DHT22;7869;49.264;8.596;2022-12-18T14:45:54;-1.70;99.90
15535;DHT22;7869;49.264;8.596;2022-12-18T14:48:24;-1.80;99.90
15535;DHT22;7869;49.264;8.596;2022-12-18T14:51:01;-1.80;99.90
15535;DHT22;7869;49.264;8.596;2022-12-18T14:53:39;-1.90;99.90
15535;DHT22;7869;49.264;8.596;2022-12-18T14:56:21;-1.90;99.90
15535;DHT22;7869;49.264;8.596;2022-12-18T14:58:49;-2.00;99.90
15535;DHT22;7869;49.264;8.596;2022-12-18T15:01:20;-2.00;99.90
15535;DHT22;7869;49.264;8.596;2022-12-18T15:03:46;-2.10;99.90
15535;DHT22;7869;49.264;8.596;2022-12-18T15:06:16;-2.20;99.90
15535;DHT22;7869;49.264;8.596;2022-12-18T15:08:42;-2.20;99.90
15535;DHT22;7869;49.264;8.596;2022-12-18T15:11:45;-2.30;99.90
15535;DHT22;7869;49.264;8.596;2022-12-18T15:16:56;-2.30;99.90
15535;DHT22;7869;49.264;8.596;2022-12-18T15:19:31;-2.40;99.90
15535;DHT22;7869;49.264;8.596;2022-12-18T15:21:59;-2.40;99.90
15535;DHT22;7869;49.264;8.596;2022-12-18T15:24:31;-2.50;99.90
15535;DHT22;7869;49.264;8.596;2022-12-18T15:26:58;-2.50;99.90
15535;DHT22;7869;49.264;8.596;2022-12-18T15:29:24;-2.60;99.90
15535;DHT22;7869;49.264;8.596;2022-12-18T15:32:05;-2.70;99.90
15535;DHT22;7869;49.264;8.596;2022-12-18T15:34:41;-2.60;99.90
15535;DHT22;7869;49.264;8.596;2022-12-18T15:37:07;-2.70;99.90
15535;DHT22;7869;49.264;8.596;2022-12-18T15:39:33;-2.70;99.90
15535;DHT22;7869;49.264;8.596;2022-12-18T15:42:01;-2.20;99.90
15535;DHT22;7869;49.264;8.596;2022-12-18T15:44:46;-2.20;99.90
15535;DHT22;7869;49.264;8.596;2022-12-18T15:47:12;-2.30;99.90
15535;DHT22;7869;49.264;8.596;2022-12-18T15:49:38;-2.40;99.90
15535;DHT22;7869;49.264;8.596;2022-12-18T15:52:04;-2.50;99.90
15535;DHT22;7869;49.264;8.596;2022-12-18T15:54:30;-2.50;99.90
15535;DHT22;7869;49.264;8.596;2022-12-18T15:57:15;-2.60;99.90
15535;DHT22;7869;49.264;8.596;2022-12-18T15:59:54;-2.70;99.90
15535;DHT22;7869;49.264;8.596;2022-12-18T16:02:22;-2.70;99.90
15535;DHT22;7869;49.264;8.596;2022-12-18T16:04:49;-2.70;99.90
15535;DHT22;7869;49.264;8.596;2022-12-18T16:07:14;-2.60;99.90
15535;DHT22;7869;49.264;8.596;2022-12-18T16:09:40;-2.60;99.90
15535;DHT22;7869;49.264;8.596;2022-12-18T16:12:14;-2.60;99.90
15535;DHT22;7869;49.264;8.596;2022-12-18T16:14:40;-2.60;99.90
15535;DHT22;7869;49.264;8.596;2022-12-18T16:17:09;-2.50;99.90
15535;DHT22;7869;49.264;8.596;2022-12-18T16:19:35;-2.50;99.90
15535;DHT22;7869;49.264;8.596;2022-12-18T16:22:01;-2.60;99.90
15535;DHT22;7869;49.264;8.596;2022-12-18T16:24:30;-2.50;99.90
15535;DHT22;7869;49.264;8.596;2022-12-18T16:26:58;-2.50;99.90
15535;DHT22;7869;49.264;8.596;2022-12-18T16:29:26;-2.50;99.90
15535;DHT22;7869;49.264;8.596;2022-12-18T16:31:59;-2.50;99.90
15535;DHT22;7869;49.264;8.596;2022-12-18T16:34:27;-2.50;99.90
15535;DHT22;7869;49.264;8.596;2022-12-18T16:36:54;-2.50;99.90
15535;DHT22;7869;49.264;8.596;2022-12-18T16:39:20;-2.50;99.90
15535;DHT22;7869;49.264;8.596;2022-12-18T16:41:46;-2.50;99.90
15535;DHT22;7869;49.264;8.596;2022-12-18T16:44:13;-2.50;99.90
15535;DHT22;7869;49.264;8.596;2022-12-18T16:46:39;-2.50;99.90
15535;DHT22;7869;49.264;8.596;2022-12-18T16:49:08;-2.40;99.90
15535;DHT22;7869;49.264;8.596;2022-12-18T16:51:34;-2.50;99.90
15535;DHT22;7869;49.264;8.596;2022-12-18T16:54:00;-2.50;99.90
15535;DHT22;7869;49.264;8.596;2022-12-18T16:56:25;-2.50;99.90
15535;DHT22;7869;49.264;8.596;2022-12-18T16:58:53;-2.50;99.90
15535;DHT22;7869;49.264;8.596;2022-12-18T17:01:20;-2.50;99.90
15535;DHT22;7869;49.264;8.596;2022-12-18T17:03:53;-2.40;99.90
15535;DHT22;7869;49.264;8.596;2022-12-18T17:06:21;-2.40;99.90
15535;DHT22;7869;49.264;8.596;2022-12-18T17:08:47;-2.40;99.90
15535;DHT22;7869;49.264;8.596;2022-12-18T17:11:13;-2.40;99.90
15535;DHT22;7869;49.264;8.596;2022-12-18T17:13:39;-2.40;99.90
15535;DHT22;7869;49.264;8.596;2022-12-18T17:16:06;-2.40;99.90
15535;DHT22;7869;49.264;8.596;2022-12-18T17:18:33;-2.40;99.90
15535;DHT22;7869;49.264;8.596;2022-12-18T17:21:00;-2.40;99.90
15535;DHT22;7869;49.264;8.596;2022-12-18T17:23:27;-2.40;99.90
15535;DHT22;7869;49.264;8.596;2022-12-18T17:25:57;-2.40;99.90
15535;DHT22;7869;49.264;8.596;2022-12-18T17:28:26;-2.40;99.90